Time;durP1;ratioP1;P1;durP2;ratioP2;P2;SDS_P1;SDS_P2;PMS_P1;PMS_P2;Temp;Humidity;BMP_temperature;BMP_pressure;BME280_temperature;BME280_humidity;BME280_pressure;Samples;Min_cycle;Max_cycle;Signal;HPM_P1;HPM_P2
2024/01/06 00:02:01;;;;;;;13.73;11.45;;;;;;;;;;5014210;28;20044;-78
2024/01/06 00:04:28;;;;;;;12.60;11.20;;;;;;;;;;5028564;28;20494;-77
2024/01/06 00:06:54;;;;;;;11.45;10.27;;;;;;;;;;5037651;28;20038;-79
2024/01/06 00:09:20;;;;;;;25.80;17.42;;;;;;;;;;5041647;28;20034;-76
2024/01/06 00:11:46;;;;;;;25.15;16.90;;;;;;;;;;5015460;28;20032;-77
2024/01/06 00:14:12;;;;;;;17.75;14.52;;;;;;;;;;5030325;28;20084;-78
2024/01/06 00:16:38;;;;;;;17.42;13.70;;;;;;;;;;5016315;28;20060;-78
2024/01/06 00:19:04;;;;;;;17.05;12.88;;;;;;;;;;5019725;28;20026;-78
2024/01/06 00:21:30;;;;;;;18.27;12.55;;;;;;;;;;5009729;28;20034;-78
2024/01/06 00:23:57;;;;;;;19.17;12.48;;;;;;;;;;5010767;28;20025;-77
2024/01/06 00:26:24;;;;;;;13.10;11.70;;;;;;;;;;5012318;28;20022;-77
2024/01/06 00:28:50;;;;;;;11.98;10.40;;;;;;;;;;5010196;28;20091;-77
2024/01/06 00:31:19;;;;;;;13.80;11.32;;;;;;;;;;5019000;28;20025;-78
2024/01/06 00:33:46;;;;;;;14.13;10.45;;;;;;;;;;5009856;28;20036;-77
2024/01/06 00:36:12;;;;;;;13.80;10.27;;;;;;;;;;5018505;28;20364;-77
2024/01/06 00:38:38;;;;;;;11.50;9.60;;;;;;;;;;5012975;28;20383;-78
2024/01/06 00:41:04;;;;;;;12.90;10.60;;;;;;;;;;5018662;28;20068;-78
2024/01/06 00:43:30;;;;;;;11.75;9.68;;;;;;;;;;5026046;28;20770;-80
2024/01/06 00:45:56;;;;;;;10.82;9.65;;;;;;;;;;5009045;28;20056;-78
2024/01/06 00:48:22;;;;;;;11.82;10.07;;;;;;;;;;5018182;28;20433;-78
2024/01/06 00:50:48;;;;;;;13.40;10.57;;;;;;;;;;5023919;28;20570;-78
2024/01/06 00:53:14;;;;;;;17.13;10.82;;;;;;;;;;5014039;28;20041;-78
2024/01/06 00:55:40;;;;;;;11.38;9.95;;;;;;;;;;5009836;28;20117;-78
2024/01/06 00:58:08;;;;;;;13.60;11.02;;;;;;;;;;5009247;28;20030;-78
2024/01/06 01:00:34;;;;;;;14.50;11.13;;;;;;;;;;5013557;28;20075;-78
2024/01/06 01:03:00;;;;;;;13.65;9.43;;;;;;;;;;5020238;28;20041;-79
2024/01/06 01:05:26;;;;;;;14.07;10.75;;;;;;;;;;5020685;28;20069;-78
2024/01/06 01:07:52;;;;;;;11.15;9.95;;;;;;;;;;5011977;28;22061;-78
2024/01/06 01:10:18;;;;;;;15.52;11.55;;;;;;;;;;5035336;28;20387;-77
2024/01/06 01:12:44;;;;;;;16.27;10.55;;;;;;;;;;5020314;28;20022;-77
2024/01/06 01:15:11;;;;;;;12.48;9.95;;;;;;;;;;5028628;28;20378;-78
2024/01/06 01:17:37;;;;;;;14.23;9.95;;;;;;;;;;5010448;28;20025;-78
2024/01/06 01:20:03;;;;;;;13.38;10.75;;;;;;;;;;5026405;28;20472;-78
2024/01/06 01:22:29;;;;;;;16.23;9.88;;;;;;;;;;5019390;28;20423;-78
2024/01/06 01:24:55;;;;;;;11.70;9.60;;;;;;;;;;5020461;28;20474;-78
2024/01/06 01:27:21;;;;;;;15.43;10.43;;;;;;;;;;5031261;28;20025;-78
2024/01/06 01:29:50;;;;;;;14.80;10.30;;;;;;;;;;5031918;28;20372;-78
2024/01/06 01:32:16;;;;;;;14.00;9.60;;;;;;;;;;5025704;28;20023;-77
2024/01/06 01:34:42;;;;;;;13.40;10.13;;;;;;;;;;5014902;28;20045;-77
2024/01/06 01:37:08;;;;;;;12.23;9.90;;;;;;;;;;5015123;28;20026;-78
2024/01/06 01:39:34;;;;;;;15.35;10.18;;;;;;;;;;5023201;28;20037;-78
2024/01/06 01:42:00;;;;;;;12.82;10.18;;;;;;;;;;5014275;28;20413;-78
2024/01/06 01:44:26;;;;;;;15.18;10.95;;;;;;;;;;5008778;28;20113;-78
2024/01/06 01:46:52;;;;;;;19.48;11.45;;;;;;;;;;5018029;28;20034;-78
2024/01/06 01:49:18;;;;;;;13.80;10.73;;;;;;;;;;5013105;28;20491;-78
2024/01/06 01:51:44;;;;;;;14.38;9.98;;;;;;;;;;5019085;28;21341;-78
2024/01/06 01:54:10;;;;;;;12.27;10.10;;;;;;;;;;5019602;28;20121;-78
2024/01/06 01:56:37;;;;;;;15.70;11.20;;;;;;;;;;5009518;28;20030;-78
2024/01/06 01:59:06;;;;;;;14.65;10.48;;;;;;;;;;5012140;28;20025;-78
2024/01/06 02:01:32;;;;;;;12.40;9.68;;;;;;;;;;5021404;28;20469;-78
2024/01/06 02:03:58;;;;;;;13.05;10.45;;;;;;;;;;5024929;28;20026;-78
2024/01/06 02:06:25;;;;;;;20.42;10.45;;;;;;;;;;5011051;28;20076;-79
2024/01/06 02:08:51;;;;;;;11.93;8.63;;;;;;;;;;5019599;28;20037;-78
2024/01/06 02:11:17;;;;;;;14.63;9.68;;;;;;;;;;5019492;28;20033;-78
2024/01/06 02:13:43;;;;;;;14.85;9.45;;;;;;;;;;5022872;28;20024;-78
2024/01/06 02:16:11;;;;;;;10.95;8.43;;;;;;;;;;5019640;28;20036;-78
2024/01/06 02:18:37;;;;;;;11.57;8.23;;;;;;;;;;5019885;28;20024;-78
2024/01/06 02:21:03;;;;;;;11.35;8.32;;;;;;;;;;5020438;28;20061;-78
2024/01/06 02:23:29;;;;;;;13.73;9.27;;;;;;;;;;5021924;28;20084;-78
2024/01/06 02:25:56;;;;;;;14.00;9.27;;;;;;;;;;5021877;28;20095;-78
2024/01/06 02:28:22;;;;;;;14.50;9.07;;;;;;;;;;5012963;28;20022;-78
2024/01/06 02:30:48;;;;;;;11.70;8.77;;;;;;;;;;5017012;28;20077;-78
2024/01/06 02:33:14;;;;;;;13.63;9.20;;;;;;;;;;5023391;28;20044;-78
2024/01/06 02:35:40;;;;;;;10.90;7.90;;;;;;;;;;5023226;28;20034;-78
2024/01/06 02:38:08;;;;;;;13.88;9.02;;;;;;;;;;5022946;28;20033;-78
2024/01/06 02:40:34;;;;;;;14.43;9.40;;;;;;;;;;5022740;28;20100;-79
2024/01/06 02:43:00;;;;;;;12.30;7.85;;;;;;;;;;5019793;28;20594;-79
2024/01/06 02:45:28;;;;;;;11.63;7.72;;;;;;;;;;5030108;28;20026;-78
2024/01/06 02:47:58;;;;;;;13.25;8.02;;;;;;;;;;5023140;28;20065;-79
2024/01/06 02:50:24;;;;;;;13.38;8.20;;;;;;;;;;5012235;28;20084;-79
2024/01/06 02:52:50;;;;;;;15.95;8.27;;;;;;;;;;5015324;28;20092;-79
2024/01/06 02:55:16;;;;;;;12.77;8.35;;;;;;;;;;5031718;28;20045;-79
2024/01/06 02:57:42;;;;;;;11.73;7.95;;;;;;;;;;5021870;28;20157;-79
2024/01/06 03:00:08;;;;;;;12.27;8.05;;;;;;;;;;5042710;28;20120;-79
2024/01/06 03:02:36;;;;;;;14.63;8.68;;;;;;;;;;5012869;28;20033;-79
2024/01/06 03:05:02;;;;;;;13.25;8.60;;;;;;;;;;5012918;28;20058;-78
2024/01/06 03:07:28;;;;;;;12.10;7.93;;;;;;;;;;5019156;28;20113;-78
2024/01/06 03:09:54;;;;;;;12.70;8.35;;;;;;;;;;5021849;28;20483;-79
2024/01/06 03:12:20;;;;;;;11.45;8.10;;;;;;;;;;5027277;28;20045;-79
2024/01/06 03:14:46;;;;;;;11.55;8.02;;;;;;;;;;5013166;28;20038;-79
2024/01/06 03:17:12;;;;;;;13.15;9.68;;;;;;;;;;5016758;28;20109;-79
2024/01/06 03:19:39;;;;;;;15.30;8.55;;;;;;;;;;5026057;28;20045;-79
2024/01/06 03:22:05;;;;;;;12.32;9.20;;;;;;;;;;5027988;28;20046;-78
2024/01/06 03:24:31;;;;;;;12.27;9.18;;;;;;;;;;5011892;28;20042;-78
2024/01/06 03:26:58;;;;;;;13.32;10.13;;;;;;;;;;5010167;28;20030;-77
2024/01/06 03:29:24;;;;;;;13.15;9.60;;;;;;;;;;5026602;28;20034;-78
2024/01/06 03:31:50;;;;;;;13.20;8.65;;;;;;;;;;5022802;28;20048;-77
2024/01/06 03:34:16;;;;;;;14.88;9.18;;;;;;;;;;5013370;28;20049;-78
2024/01/06 03:36:42;;;;;;;14.80;9.90;;;;;;;;;;5011240;28;20080;-78
2024/01/06 03:39:10;;;;;;;14.07;9.68;;;;;;;;;;5019140;28;20038;-77
2024/01/06 03:41:36;;;;;;;18.58;10.00;;;;;;;;;;5021181;28;20026;-78
2024/01/06 03:44:02;;;;;;;13.60;9.65;;;;;;;;;;5011497;28;20483;-78
2024/01/06 03:46:28;;;;;;;13.85;10.45;;;;;;;;;;5029403;28;20033;-78
2024/01/06 03:48:54;;;;;;;17.67;10.40;;;;;;;;;;5021716;28;20049;-78
2024/01/06 03:51:21;;;;;;;15.85;9.98;;;;;;;;;;5020359;28;20396;-78
2024/01/06 03:53:47;;;;;;;13.90;10.07;;;;;;;;;;5021411;28;20116;-79
2024/01/06 03:56:13;;;;;;;15.18;10.60;;;;;;;;;;5024760;28;20026;-79
2024/01/06 03:58:40;;;;;;;16.42;10.82;;;;;;;;;;5011014;28;20025;-79
2024/01/06 04:01:06;;;;;;;13.07;9.60;;;;;;;;;;5016127;28;20032;-79
2024/01/06 04:03:32;;;;;;;11.30;9.07;;;;;;;;;;5021107;28;20037;-79
2024/01/06 04:05:58;;;;;;;14.65;9.95;;;;;;;;;;5015526;28;20057;-79
2024/01/06 04:08:24;;;;;;;13.18;9.25;;;;;;;;;;5031473;28;20029;-79
2024/01/06 04:10:50;;;;;;;12.05;9.27;;;;;;;;;;5022478;28;20044;-79
2024/01/06 04:13:16;;;;;;;15.48;9.10;;;;;;;;;;5024686;28;20028;-78
2024/01/06 04:15:42;;;;;;;13.77;9.38;;;;;;;;;;5022344;28;20080;-79
2024/01/06 04:18:09;;;;;;;12.30;8.15;;;;;;;;;;5023783;28;20037;-78
2024/01/06 04:20:36;;;;;;;13.65;9.20;;;;;;;;;;5011469;28;20448;-79
2024/01/06 04:23:02;;;;;;;10.85;8.13;;;;;;;;;;5009397;28;20446;-80
2024/01/06 04:25:28;;;;;;;14.27;8.23;;;;;;;;;;5026529;28;20038;-79
2024/01/06 04:27:54;;;;;;;16.08;8.35;;;;;;;;;;5037825;28;20026;-79
2024/01/06 04:30:20;;;;;;;14.38;8.20;;;;;;;;;;5016084;28;20018;-79
2024/01/06 04:32:48;;;;;;;16.67;8.85;;;;;;;;;;5011277;28;20028;-79
2024/01/06 04:35:14;;;;;;;14.05;8.38;;;;;;;;;;5021349;28;20045;-81
2024/01/06 04:37:40;;;;;;;12.70;8.18;;;;;;;;;;5025418;28;20049;-79
2024/01/06 04:40:07;;;;;;;12.52;8.82;;;;;;;;;;5009846;28;20034;-79
2024/01/06 04:42:33;;;;;;;14.10;8.27;;;;;;;;;;5029340;28;20167;-79
2024/01/06 04:44:59;;;;;;;13.43;8.48;;;;;;;;;;5016245;28;20084;-80
2024/01/06 04:47:27;;;;;;;24.42;13.45;;;;;;;;;;5012932;28;20026;-76
2024/01/06 04:49:53;;;;;;;14.95;9.20;;;;;;;;;;5010681;28;20033;-78
2024/01/06 04:52:19;;;;;;;14.60;8.60;;;;;;;;;;5013550;28;20025;-79
2024/01/06 04:54:45;;;;;;;15.13;8.75;;;;;;;;;;5018135;28;20030;-79
2024/01/06 04:57:11;;;;;;;12.60;8.55;;;;;;;;;;5008929;28;20056;-79
2024/01/06 04:59:38;;;;;;;15.00;8.18;;;;;;;;;;5020685;28;20045;-79
2024/01/06 05:02:04;;;;;;;13.95;8.52;;;;;;;;;;5025257;28;20022;-79
2024/01/06 05:04:32;;;;;;;14.93;8.85;;;;;;;;;;5022944;28;20476;-79
2024/01/06 05:06:58;;;;;;;13.23;8.77;;;;;;;;;;5010800;28;20502;-79
2024/01/06 05:09:24;;;;;;;10.70;8.18;;;;;;;;;;5014326;28;20025;-79
2024/01/06 05:12:08;;;;;;;11.77;7.32;;;;;;;;;;5023743;28;20483;-79
2024/01/06 05:14:34;;;;;;;17.02;8.15;;;;;;;;;;5014670;28;20037;-78
2024/01/06 05:17:00;;;;;;;23.52;12.80;;;;;;;;;;5012900;28;20033;-79
2024/01/06 05:19:26;;;;;;;19.80;11.25;;;;;;;;;;5008644;28;20041;-81
2024/01/06 05:21:53;;;;;;;16.85;8.40;;;;;;;;;;5035308;28;20025;-78
2024/01/06 05:24:19;;;;;;;12.75;8.10;;;;;;;;;;5013851;28;20026;-79
2024/01/06 05:26:45;;;;;;;13.90;8.02;;;;;;;;;;5011139;28;20030;-79
2024/01/06 05:29:11;;;;;;;12.40;7.65;;;;;;;;;;5010052;28;20072;-79
2024/01/06 05:31:37;;;;;;;11.15;7.97;;;;;;;;;;5018138;28;20062;-79
2024/01/06 05:34:04;;;;;;;12.95;7.53;;;;;;;;;;5013738;28;20029;-79
2024/01/06 05:36:30;;;;;;;12.90;8.30;;;;;;;;;;5024572;28;20521;-79
2024/01/06 05:38:56;;;;;;;10.38;7.60;;;;;;;;;;5008792;28;20105;-79
2024/01/06 05:41:22;;;;;;;11.82;7.32;;;;;;;;;;5012456;28;20091;-80
2024/01/06 05:43:48;;;;;;;12.73;7.93;;;;;;;;;;5029222;28;20022;-78
2024/01/06 05:46:24;;;;;;;12.95;8.00;;;;;;;;;;5026614;28;20033;-78
2024/01/06 05:48:50;;;;;;;11.95;7.30;;;;;;;;;;5031594;28;20034;-79
2024/01/06 05:51:17;;;;;;;14.02;6.57;;;;;;;;;;5018447;28;20056;-79
2024/01/06 05:53:43;;;;;;;10.00;7.55;;;;;;;;;;5032493;28;20029;-78
2024/01/06 05:56:09;;;;;;;11.75;7.82;;;;;;;;;;5025549;28;20751;-80
2024/01/06 05:58:35;;;;;;;13.93;7.43;;;;;;;;;;5028012;28;20030;-78
2024/01/06 06:01:01;;;;;;;13.95;7.38;;;;;;;;;;5019231;28;20101;-79
2024/01/06 06:03:27;;;;;;;10.18;7.03;;;;;;;;;;5024056;28;20022;-79
2024/01/06 06:05:53;;;;;;;12.15;6.78;;;;;;;;;;5023013;28;20411;-80
2024/01/06 06:08:19;;;;;;;9.05;6.93;;;;;;;;;;5025644;28;20163;-79
2024/01/06 06:11:01;;;;;;;9.90;7.38;;;;;;;;;;5024631;28;20033;-79
2024/01/06 06:13:27;;;;;;;9.75;7.10;;;;;;;;;;5012188;28;20026;-80
2024/01/06 06:15:53;;;;;;;10.90;7.40;;;;;;;;;;5014815;28;20029;-79
2024/01/06 06:18:19;;;;;;;13.07;7.57;;;;;;;;;;5021605;28;20068;-80
2024/01/06 06:20:45;;;;;;;12.10;7.60;;;;;;;;;;5021892;28;20034;-79
2024/01/06 06:23:11;;;;;;;12.45;7.13;;;;;;;;;;5012167;28;20033;-78
2024/01/06 06:25:39;;;;;;;13.00;7.68;;;;;;;;;;5037288;28;20171;-77
2024/01/06 06:28:05;;;;;;;12.23;7.40;;;;;;;;;;5025626;28;20037;-77
2024/01/06 06:30:31;;;;;;;11.30;7.85;;;;;;;;;;5028471;28;20028;-77
2024/01/06 06:32:57;;;;;;;12.88;7.75;;;;;;;;;;5028282;28;20025;-78
2024/01/06 06:35:23;;;;;;;14.68;8.18;;;;;;;;;;5023683;28;20041;-79
2024/01/06 06:37:49;;;;;;;13.45;8.45;;;;;;;;;;5011175;28;20538;-79
2024/01/06 06:40:16;;;;;;;12.50;8.40;;;;;;;;;;5021088;28;20028;-80
2024/01/06 06:42:42;;;;;;;17.98;8.65;;;;;;;;;;5013754;28;20117;-77
2024/01/06 06:45:11;;;;;;;12.07;8.07;;;;;;;;;;5013897;28;20029;-78
2024/01/06 06:47:37;;;;;;;14.77;8.27;;;;;;;;;;5025186;28;20036;-79
2024/01/06 06:50:03;;;;;;;14.18;8.88;;;;;;;;;;5030637;28;20089;-78
2024/01/06 06:52:29;;;;;;;13.93;8.43;;;;;;;;;;5011507;28;20026;-79
2024/01/06 06:54:55;;;;;;;15.27;10.48;;;;;;;;;;5015367;28;20049;-79
2024/01/06 06:57:21;;;;;;;19.92;10.57;;;;;;;;;;5024493;28;20030;-78
2024/01/06 06:59:50;;;;;;;16.70;8.75;;;;;;;;;;5030567;28;20498;-79
2024/01/06 07:02:16;;;;;;;14.43;8.80;;;;;;;;;;5020817;28;20649;-79
2024/01/06 07:04:42;;;;;;;14.70;8.80;;;;;;;;;;5017497;28;20107;-79
2024/01/06 07:07:08;;;;;;;15.40;9.52;;;;;;;;;;5013112;28;20049;-79
2024/01/06 07:09:34;;;;;;;17.50;9.70;;;;;;;;;;5021570;28;20029;-80
2024/01/06 07:12:00;;;;;;;19.77;9.82;;;;;;;;;;5023269;28;20034;-79
2024/01/06 07:14:26;;;;;;;15.48;9.45;;;;;;;;;;5019581;28;20040;-79
2024/01/06 07:16:52;;;;;;;19.88;10.23;;;;;;;;;;5023793;28;20032;-79
2024/01/06 07:19:18;;;;;;;16.27;9.75;;;;;;;;;;5019978;28;20029;-79
2024/01/06 07:21:44;;;;;;;19.38;10.30;;;;;;;;;;5010987;28;20084;-78
2024/01/06 07:24:10;;;;;;;14.85;10.90;;;;;;;;;;5035271;28;20029;-78
2024/01/06 07:26:36;;;;;;;21.83;10.77;;;;;;;;;;5011962;28;20445;-78
2024/01/06 07:29:02;;;;;;;16.00;10.25;;;;;;;;;;5014414;28;20475;-78
2024/01/06 07:31:28;;;;;;;12.23;9.38;;;;;;;;;;5021815;28;20041;-79
2024/01/06 07:33:54;;;;;;;17.52;9.85;;;;;;;;;;5020178;28;20026;-78
2024/01/06 07:36:21;;;;;;;23.45;9.75;;;;;;;;;;5011868;28;20049;-78
2024/01/06 07:38:47;;;;;;;19.25;9.93;;;;;;;;;;5019160;28;20038;-77
2024/01/06 07:41:13;;;;;;;16.17;9.45;;;;;;;;;;5023727;28;20021;-79
2024/01/06 07:43:39;;;;;;;13.80;9.45;;;;;;;;;;5017860;28;20049;-78
2024/01/06 07:46:06;;;;;;;20.95;10.18;;;;;;;;;;5018132;28;20033;-78
2024/01/06 07:48:33;;;;;;;14.57;9.65;;;;;;;;;;5028275;28;20026;-79
2024/01/06 07:50:59;;;;;;;14.23;10.10;;;;;;;;;;5019100;28;20081;-78
2024/01/06 07:53:25;;;;;;;22.35;9.80;;;;;;;;;;5016375;28;20036;-78
2024/01/06 07:55:51;;;;;;;16.33;9.95;;;;;;;;;;5014786;28;20088;-80
2024/01/06 07:58:17;;;;;;;16.42;9.23;;;;;;;;;;5012448;28;20026;-79
2024/01/06 08:00:43;;;;;;;19.00;10.23;;;;;;;;;;5010875;28;20021;-78
2024/01/06 08:03:11;;;;;;;19.77;11.32;;;;;;;;;;5009006;28;20038;-80
2024/01/06 08:05:37;;;;;;;16.63;10.18;;;;;;;;;;5009717;28;20065;-80
2024/01/06 08:08:06;;;;;;;17.48;10.60;;;;;;;;;;5023667;28;20116;-79
2024/01/06 08:10:32;;;;;;;17.50;10.75;;;;;;;;;;5003956;28;20053;-81
2024/01/06 08:12:58;;;;;;;22.35;11.20;;;;;;;;;;5017840;28;20068;-79
2024/01/06 08:15:24;;;;;;;16.13;9.57;;;;;;;;;;5025953;28;20045;-79
2024/01/06 08:17:51;;;;;;;20.92;10.05;;;;;;;;;;5019035;28;20030;-80
2024/01/06 08:20:17;;;;;;;19.25;10.23;;;;;;;;;;5017928;28;20030;-78
2024/01/06 08:22:43;;;;;;;26.45;10.48;;;;;;;;;;5009712;28;20556;-79
2024/01/06 08:25:10;;;;;;;16.77;9.38;;;;;;;;;;5011302;28;20041;-78
2024/01/06 08:27:36;;;;;;;16.33;9.52;;;;;;;;;;5016765;28;20379;-79
2024/01/06 08:30:06;;;;;;;15.07;8.90;;;;;;;;;;5018504;28;20030;-78
2024/01/06 08:32:32;;;;;;;16.10;9.70;;;;;;;;;;5029336;28;20033;-79
2024/01/06 08:34:58;;;;;;;16.50;9.32;;;;;;;;;;5023114;28;20068;-79
2024/01/06 08:37:24;;;;;;;14.55;9.27;;;;;;;;;;5012838;28;20143;-79
2024/01/06 08:39:50;;;;;;;13.35;8.88;;;;;;;;;;5026085;28;20029;-79
2024/01/06 08:42:16;;;;;;;15.13;9.40;;;;;;;;;;5019542;28;20026;-79
2024/01/06 08:44:43;;;;;;;15.15;9.52;;;;;;;;;;5023466;28;20068;-78
2024/01/06 08:47:09;;;;;;;14.27;8.50;;;;;;;;;;5017425;28;20026;-77
2024/01/06 08:49:35;;;;;;;13.05;9.05;;;;;;;;;;5018517;28;20042;-81
2024/01/06 08:52:01;;;;;;;14.85;9.52;;;;;;;;;;5011022;28;20216;-77
2024/01/06 08:54:27;;;;;;;17.33;9.60;;;;;;;;;;5012766;28;20053;-76
2024/01/06 08:56:53;;;;;;;23.08;11.40;;;;;;;;;;5014451;28;20034;-75
2024/01/06 08:59:20;;;;;;;21.13;12.18;;;;;;;;;;5010061;28;20095;-77
2024/01/06 09:01:46;;;;;;;18.80;10.60;;;;;;;;;;5010131;28;20029;-77
2024/01/06 09:04:12;;;;;;;18.75;10.32;;;;;;;;;;5011305;28;20033;-77
2024/01/06 09:06:39;;;;;;;26.25;14.32;;;;;;;;;;5017385;28;20402;-77
2024/01/06 09:09:05;;;;;;;26.02;12.80;;;;;;;;;;5025536;28;20025;-75
2024/01/06 09:11:31;;;;;;;16.42;11.32;;;;;;;;;;5025087;28;20088;-77
2024/01/06 09:13:57;;;;;;;16.67;10.52;;;;;;;;;;5030798;28;20109;-78
2024/01/06 09:16:24;;;;;;;15.95;9.85;;;;;;;;;;5027995;28;20076;-77
2024/01/06 09:18:50;;;;;;;15.40;10.60;;;;;;;;;;5018275;28;20560;-77
2024/01/06 09:21:17;;;;;;;13.43;10.40;;;;;;;;;;5027704;28;20040;-78
2024/01/06 09:23:43;;;;;;;14.68;10.50;;;;;;;;;;5017246;28;20656;-78
2024/01/06 09:26:09;;;;;;;17.52;10.43;;;;;;;;;;5020095;28;20030;-78
2024/01/06 09:28:35;;;;;;;15.90;10.15;;;;;;;;;;5020526;28;20109;-79
2024/01/06 09:31:02;;;;;;;20.45;10.32;;;;;;;;;;5022239;28;20763;-79
2024/01/06 09:33:28;;;;;;;16.48;9.90;;;;;;;;;;5022788;28;20014;-79
2024/01/06 09:35:55;;;;;;;14.98;10.73;;;;;;;;;;5028918;28;20038;-77
2024/01/06 09:38:24;;;;;;;13.65;9.82;;;;;;;;;;5022420;28;20026;-78
2024/01/06 09:40:50;;;;;;;17.35;9.77;;;;;;;;;;4997987;28;20026;-80
2024/01/06 09:43:16;;;;;;;16.33;10.15;;;;;;;;;;5012861;28;20403;-78
2024/01/06 09:45:42;;;;;;;15.50;10.15;;;;;;;;;;5026687;28;20038;-77
2024/01/06 09:48:13;;;;;;;16.27;10.48;;;;;;;;;;5031060;28;20908;-77
2024/01/06 09:50:44;;;;;;;14.23;10.60;;;;;;;;;;5032060;28;20021;-79
2024/01/06 09:53:11;;;;;;;17.67;9.93;;;;;;;;;;5032296;28;20053;-78
2024/01/06 09:55:38;;;;;;;16.85;10.60;;;;;;;;;;5024675;28;20065;-76
2024/01/06 09:58:05;;;;;;;15.93;9.98;;;;;;;;;;5028923;28;20037;-76
2024/01/06 10:00:31;;;;;;;17.88;10.15;;;;;;;;;;5012306;28;20656;-78
2024/01/06 10:02:57;;;;;;;13.82;9.73;;;;;;;;;;4995122;28;20360;-78
2024/01/06 10:05:24;;;;;;;12.23;9.40;;;;;;;;;;5012874;28;20034;-78
2024/01/06 10:07:50;;;;;;;20.00;9.63;;;;;;;;;;5023935;28;20045;-81
2024/01/06 10:10:16;;;;;;;12.88;10.10;;;;;;;;;;4997603;28;20030;-78
2024/01/06 10:12:42;;;;;;;17.33;9.80;;;;;;;;;;5024020;28;20309;-79
2024/01/06 10:15:09;;;;;;;15.05;9.68;;;;;;;;;;5015137;28;20049;-78
2024/01/06 10:17:39;;;;;;;15.23;8.25;;;;;;;;;;5031812;28;20364;-79
2024/01/06 10:20:09;;;;;;;13.30;8.88;;;;;;;;;;5031703;28;20026;-78
2024/01/06 10:22:38;;;;;;;14.35;9.48;;;;;;;;;;5018416;28;20033;-80
2024/01/06 10:25:08;;;;;;;13.88;9.48;;;;;;;;;;5037946;28;20025;-76
2024/01/06 10:27:35;;;;;;;18.40;8.85;;;;;;;;;;5029967;28;20510;-78
2024/01/06 10:30:02;;;;;;;19.52;9.23;;;;;;;;;;5008599;28;20049;-78
2024/01/06 10:32:30;;;;;;;12.07;8.30;;;;;;;;;;5028148;28;20026;-77
2024/01/06 10:34:57;;;;;;;12.13;8.27;;;;;;;;;;5019864;28;20087;-78
2024/01/06 10:37:24;;;;;;;14.30;8.95;;;;;;;;;;5025268;28;20029;-80
2024/01/06 10:40:05;;;;;;;15.68;9.43;;;;;;;;;;5013991;28;20509;-80
2024/01/06 10:42:31;;;;;;;15.02;9.45;;;;;;;;;;5014631;28;20037;-78
2024/01/06 10:44:58;;;;;;;12.57;8.18;;;;;;;;;;5022685;28;20029;-78
2024/01/06 10:47:26;;;;;;;13.50;9.30;;;;;;;;;;5025790;28;20025;-78
2024/01/06 10:49:54;;;;;;;14.32;9.02;;;;;;;;;;5023403;28;20041;-77
2024/01/06 10:52:20;;;;;;;12.68;8.75;;;;;;;;;;5017090;28;20026;-80
2024/01/06 10:54:50;;;;;;;17.95;9.63;;;;;;;;;;5038276;28;20052;-80
2024/01/06 10:57:16;;;;;;;12.27;9.32;;;;;;;;;;5018821;28;20022;-79
2024/01/06 10:59:42;;;;;;;15.98;9.95;;;;;;;;;;5025992;28;20055;-79
2024/01/06 11:02:09;;;;;;;13.65;9.65;;;;;;;;;;5026453;28;20038;-79
2024/01/06 11:04:35;;;;;;;16.80;9.52;;;;;;;;;;5018953;28;20498;-79
2024/01/06 11:07:01;;;;;;;13.80;8.65;;;;;;;;;;5012714;28;20081;-79
2024/01/06 11:09:33;;;;;;;12.63;8.52;;;;;;;;;;5014222;28;20040;-80
2024/01/06 11:12:00;;;;;;;12.95;9.18;;;;;;;;;;5029594;28;20033;-79
2024/01/06 11:14:33;;;;;;;14.55;8.57;;;;;;;;;;5020389;28;20026;-79
2024/01/06 11:16:59;;;;;;;12.35;7.65;;;;;;;;;;5028012;28;20029;-79
2024/01/06 11:19:37;;;;;;;14.35;8.38;;;;;;;;;;5022898;28;20099;-79
2024/01/06 11:22:18;;;;;;;19.52;9.43;;;;;;;;;;5024245;28;20107;-77
2024/01/06 11:24:48;;;;;;;13.60;7.18;;;;;;;;;;5013468;28;20042;-79
2024/01/06 11:27:18;;;;;;;10.38;7.15;;;;;;;;;;5014991;28;20029;-79
2024/01/06 11:29:45;;;;;;;8.07;6.28;;;;;;;;;;5042437;28;20033;-80
2024/01/06 11:32:21;;;;;;;8.93;5.55;;;;;;;;;;5017877;28;20045;-79
2024/01/06 11:34:50;;;;;;;7.93;5.25;;;;;;;;;;5009808;28;20048;-82
2024/01/06 11:37:21;;;;;;;10.02;6.03;;;;;;;;;;5013597;28;20117;-79
2024/01/06 11:39:47;;;;;;;8.13;5.75;;;;;;;;;;5020772;28;20847;-77
2024/01/06 11:42:14;;;;;;;8.13;5.57;;;;;;;;;;5034856;28;20535;-77
2024/01/06 11:44:43;;;;;;;7.15;4.97;;;;;;;;;;5038622;28;20036;-79
2024/01/06 11:47:11;;;;;;;7.10;5.18;;;;;;;;;;5030390;28;20033;-78
2024/01/06 11:49:37;;;;;;;6.47;4.88;;;;;;;;;;5036053;28;20041;-76
2024/01/06 11:52:04;;;;;;;7.38;5.25;;;;;;;;;;5017292;28;20076;-78
2024/01/06 11:54:30;;;;;;;8.15;5.03;;;;;;;;;;5014106;28;20029;-80
2024/01/06 11:56:57;;;;;;;7.68;5.35;;;;;;;;;;5017570;28;20022;-83
2024/01/06 11:59:24;;;;;;;8.60;5.50;;;;;;;;;;5021431;28;20037;-80
2024/01/06 12:01:51;;;;;;;7.53;5.82;;;;;;;;;;5024270;28;20034;-79
2024/01/06 12:04:18;;;;;;;7.90;5.22;;;;;;;;;;5018317;28;20034;-77
2024/01/06 12:06:44;;;;;;;7.38;4.63;;;;;;;;;;5012598;28;20049;-77
2024/01/06 12:09:14;;;;;;;7.88;5.07;;;;;;;;;;5027194;28;20033;-82
2024/01/06 12:11:40;;;;;;;7.35;4.95;;;;;;;;;;5016035;28;20072;-79
2024/01/06 12:14:06;;;;;;;8.02;5.50;;;;;;;;;;5026376;28;20034;-80
2024/01/06 12:16:32;;;;;;;9.68;5.80;;;;;;;;;;5024920;28;20439;-82
2024/01/06 12:19:00;;;;;;;8.07;5.35;;;;;;;;;;5024147;28;20029;-80
2024/01/06 12:21:27;;;;;;;7.28;5.70;;;;;;;;;;5013484;28;20041;-78
2024/01/06 12:23:54;;;;;;;6.40;5.25;;;;;;;;;;5025774;28;20029;-80
2024/01/06 12:26:20;;;;;;;7.40;5.70;;;;;;;;;;5017991;28;20042;-83
2024/01/06 12:28:46;;;;;;;6.93;5.60;;;;;;;;;;5018147;28;20120;-81
2024/01/06 12:31:12;;;;;;;6.65;5.53;;;;;;;;;;5021524;28;20021;-81
2024/01/06 12:33:42;;;;;;;6.72;5.75;;;;;;;;;;5013661;28;20029;-80
2024/01/06 12:36:08;;;;;;;8.15;6.10;;;;;;;;;;5014269;28;20045;-79
2024/01/06 12:38:35;;;;;;;9.52;6.95;;;;;;;;;;5011208;28;20415;-80
2024/01/06 12:41:02;;;;;;;12.40;6.28;;;;;;;;;;5013138;28;20068;-79
2024/01/06 12:43:28;;;;;;;7.82;6.95;;;;;;;;;;5014185;28;20497;-80
2024/01/06 12:45:57;;;;;;;7.15;5.95;;;;;;;;;;5035419;28;20439;-80
2024/01/06 12:48:23;;;;;;;9.25;6.07;;;;;;;;;;5014589;28;20025;-80
2024/01/06 12:50:49;;;;;;;10.77;7.53;;;;;;;;;;5021242;28;20034;-80
2024/01/06 12:53:17;;;;;;;8.15;6.45;;;;;;;;;;5006534;28;20026;-79
2024/01/06 12:55:43;;;;;;;9.75;7.53;;;;;;;;;;5007097;28;20044;-81
2024/01/06 12:58:09;;;;;;;9.43;7.50;;;;;;;;;;5012769;28;20025;-80
2024/01/06 13:00:35;;;;;;;8.82;7.35;;;;;;;;;;5020096;28;20022;-80
2024/01/06 13:03:01;;;;;;;10.93;7.13;;;;;;;;;;5017612;28;20033;-84
2024/01/06 13:05:27;;;;;;;8.15;6.57;;;;;;;;;;5018472;28;20447;-80
2024/01/06 13:07:53;;;;;;;12.07;7.25;;;;;;;;;;5019705;28;20103;-80
2024/01/06 13:10:19;;;;;;;13.20;7.57;;;;;;;;;;5012191;28;20503;-78
2024/01/06 13:12:45;;;;;;;9.15;7.68;;;;;;;;;;5011921;28;20076;-78
2024/01/06 13:15:11;;;;;;;10.18;7.80;;;;;;;;;;5023854;28;20046;-78
2024/01/06 13:17:40;;;;;;;10.18;6.93;;;;;;;;;;5009938;28;20033;-79
2024/01/06 13:20:07;;;;;;;9.98;7.82;;;;;;;;;;5018864;28;20514;-80
2024/01/06 13:22:34;;;;;;;11.45;6.70;;;;;;;;;;5025021;28;20371;-78
2024/01/06 13:25:00;;;;;;;7.10;5.85;;;;;;;;;;5011240;28;20033;-75
2024/01/06 13:27:29;;;;;;;7.95;6.20;;;;;;;;;;5010127;28;20042;-78
2024/01/06 13:29:55;;;;;;;7.03;5.70;;;;;;;;;;5025861;28;20550;-81
2024/01/06 13:32:22;;;;;;;6.38;4.80;;;;;;;;;;5025651;28;20064;-81
2024/01/06 13:34:54;;;;;;;7.13;5.75;;;;;;;;;;5018406;28;20034;-80
2024/01/06 13:37:22;;;;;;;7.78;5.78;;;;;;;;;;5022927;28;20039;-79
2024/01/06 13:39:48;;;;;;;8.45;6.07;;;;;;;;;;5017111;28;20021;-80
2024/01/06 13:42:14;;;;;;;7.68;6.00;;;;;;;;;;5018904;28;20470;-80
2024/01/06 13:44:40;;;;;;;7.38;5.30;;;;;;;;;;5019195;28;20095;-80
2024/01/06 13:47:06;;;;;;;10.65;6.15;;;;;;;;;;5025328;28;20036;-80
2024/01/06 13:49:32;;;;;;;6.03;5.25;;;;;;;;;;5016860;28;20546;-81
2024/01/06 13:51:58;;;;;;;6.95;5.53;;;;;;;;;;5019612;28;20029;-78
2024/01/06 13:54:24;;;;;;;7.45;5.00;;;;;;;;;;5023668;28;20108;-80
2024/01/06 13:56:51;;;;;;;7.47;5.63;;;;;;;;;;5014370;28;20082;-78
2024/01/06 13:59:18;;;;;;;7.05;5.47;;;;;;;;;;5024681;28;20042;-79
2024/01/06 14:01:44;;;;;;;7.85;6.07;;;;;;;;;;5013654;28;20080;-79
2024/01/06 14:04:10;;;;;;;6.95;5.53;;;;;;;;;;5007111;28;20186;-82
2024/01/06 14:06:36;;;;;;;7.75;5.80;;;;;;;;;;5026429;28;20049;-81
2024/01/06 14:09:02;;;;;;;8.98;6.38;;;;;;;;;;5023705;28;20471;-80
2024/01/06 14:11:30;;;;;;;8.45;4.93;;;;;;;;;;5014918;28;20034;-80
2024/01/06 14:13:57;;;;;;;8.18;5.93;;;;;;;;;;5020951;28;20030;-79
2024/01/06 14:16:23;;;;;;;7.60;6.05;;;;;;;;;;5015462;28;20068;-78
2024/01/06 14:18:49;;;;;;;8.85;5.97;;;;;;;;;;5015110;28;20029;-79
2024/01/06 14:21:19;;;;;;;6.95;5.40;;;;;;;;;;5020520;28;20163;-79
2024/01/06 14:23:45;;;;;;;9.63;5.35;;;;;;;;;;5018528;28;20025;-79
2024/01/06 14:26:11;;;;;;;9.77;5.75;;;;;;;;;;5017609;28;20472;-78